createdAt,value
2023-04-02T00:01:44.508Z,279.26
2023-04-02T00:05:34.943Z,254.81
2023-04-02T00:08:44.888Z,280.17
2023-04-02T00:11:56.769Z,253.77
2023-04-02T00:15:05.476Z,253.96
2023-04-02T00:18:20.343Z,277.65
2023-04-02T00:21:38.793Z,285.45
2023-04-02T00:24:53.783Z,272.94
2023-04-02T00:28:06.164Z,272.41
2023-04-02T00:31:16.404Z,276.94
2023-04-02T00:34:29.124Z,271.38
2023-04-02T00:37:39.483Z,283.70
2023-04-02T00:40:50.739Z,293.75
2023-04-02T00:43:59.098Z,297.06
2023-04-02T00:47:23.304Z,305.20
2023-04-02T00:50:38.695Z,286.78
2023-04-02T00:53:50.570Z,292.13
2023-04-02T00:57:01.653Z,309.60
2023-04-02T01:00:27.045Z,310.73
2023-04-02T01:03:45.257Z,316.50
2023-04-02T01:06:53.806Z,316.98
2023-04-02T01:10:27.340Z,324.98
2023-04-02T01:13:45.437Z,326.34
2023-04-02T01:17:06.360Z,314.13
2023-04-02T01:20:55.324Z,307.01
2023-04-02T01:24:09.010Z,319.61
2023-04-02T01:27:28.996Z,324.77
2023-04-02T01:30:41.894Z,333.98
2023-04-02T01:33:48.245Z,338.68
2023-04-02T01:37:22.600Z,348.09
2023-04-02T01:40:50.789Z,350.53
2023-04-02T01:44:12.409Z,344.09
2023-04-02T01:47:32.111Z,343.57
2023-04-02T01:50:42.520Z,339.48
2023-04-02T01:53:48.770Z,328.91
2023-04-02T01:56:56.193Z,333.54
2023-04-02T02:00:20.422Z,336.11
2023-04-02T02:03:38.699Z,331.71
2023-04-02T02:06:46.406Z,335.50
2023-04-02T02:09:56.512Z,335.84
2023-04-02T02:13:09.448Z,315.95
2023-04-02T02:16:30.301Z,318.89
2023-04-02T02:19:46.607Z,317.54
2023-04-02T02:22:55.690Z,329.75
2023-04-02T02:26:02.368Z,346.16
2023-04-02T02:29:21.850Z,352.86
2023-04-02T02:32:35.385Z,336.02
2023-04-02T02:35:56.424Z,334.20
2023-04-02T02:39:27.172Z,327.78
2023-04-02T02:42:41.924Z,331.18
2023-04-02T02:45:51.994Z,328.96
2023-04-02T02:49:04.644Z,333.53
2023-04-02T02:52:22.454Z,335.19
2023-04-02T02:55:43.483Z,318.61
2023-04-02T02:58:58.431Z,314.84
2023-04-02T03:02:21.557Z,311.77
2023-04-02T03:05:31.664Z,296.33
2023-04-02T03:08:59.239Z,299.74
2023-04-02T03:12:39.047Z,275.57
2023-04-02T03:16:05.189Z,260.52
2023-04-02T03:19:31.547Z,264.91
2023-04-02T03:22:49.650Z,238.27
2023-04-02T03:26:11.764Z,222.26
2023-04-02T03:29:33.400Z,211.17
2023-04-02T03:32:46.555Z,198.04
2023-04-02T03:36:08.289Z,202.45
2023-04-02T03:39:29.339Z,200.98
2023-04-02T03:42:52.572Z,202.02
2023-04-02T03:46:21.711Z,206.50
2023-04-02T03:49:39.677Z,201.38
2023-04-02T03:52:46.622Z,207.96
2023-04-02T03:55:58.235Z,206.11
2023-04-02T03:59:25.069Z,207.68
2023-04-02T04:02:52.530Z,209.17
2023-04-02T04:06:08.040Z,208.94
2023-04-02T04:09:30.060Z,204.14
2023-04-02T04:12:43.811Z,203.43
2023-04-02T04:16:06.664Z,207.22
2023-04-02T04:19:25.656Z,196.85
2023-04-02T04:22:34.298Z,199.04
2023-04-02T04:26:05.796Z,197.86
2023-04-02T04:29:35.098Z,194.77
2023-04-02T04:32:58.753Z,189.87
2023-04-02T04:36:09.373Z,187.23
2023-04-02T04:39:30.002Z,195.19
2023-04-02T04:42:46.494Z,192.35
2023-04-02T04:46:08.701Z,195.41
2023-04-02T04:49:30.584Z,192.04
2023-04-02T04:52:42.421Z,194.23
2023-04-02T04:55:53.641Z,194.12
2023-04-02T04:59:09.491Z,198.30
2023-04-02T05:02:36.486Z,198.54
2023-04-02T05:05:50.758Z,190.97
2023-04-02T05:09:21.496Z,190.08
2023-04-02T05:12:43.336Z,187.78
2023-04-02T05:16:08.162Z,184.34
2023-04-02T05:19:26.586Z,177.33
2023-04-02T05:22:47.547Z,186.43
2023-04-02T05:26:03.122Z,198.16
2023-04-02T05:29:22.320Z,194.31
2023-04-02T05:32:39.941Z,193.35
2023-04-02T05:35:57.466Z,189.60
2023-04-02T05:39:19.329Z,189.79
2023-04-02T05:42:41.186Z,193.45
2023-04-02T05:46:01.431Z,182.34
2023-04-02T05:49:21.187Z,139.17
2023-04-02T05:52:37.371Z,102.18
2023-04-02T05:56:00.073Z,78.35
2023-04-02T05:59:25.350Z,63.24
2023-04-02T06:02:43.547Z,60.73
2023-04-02T06:05:55.497Z,59.57
2023-04-02T06:09:14.790Z,68.05
2023-04-02T06:12:38.266Z,67.44
2023-04-02T06:15:47.984Z,55.92
2023-04-02T06:19:03.076Z,61.40
2023-04-02T06:22:27.603Z,54.83
2023-04-02T06:25:45.861Z,55.87
2023-04-02T06:29:08.071Z,72.65
2023-04-02T06:32:16.186Z,81.75
2023-04-02T06:35:40.201Z,54.30
2023-04-02T06:38:50.239Z,58.78
2023-04-02T06:42:19.184Z,67.84
2023-04-02T06:46:01.181Z,70.11
2023-04-02T06:49:29.279Z,64.87
2023-04-02T06:52:49.735Z,56.93
2023-04-02T06:56:07.293Z,48.16
2023-04-02T06:59:16.002Z,48.57
2023-04-02T07:02:40.428Z,41.74
2023-04-02T07:05:53.173Z,36.68
2023-04-02T07:09:00.472Z,30.23
2023-04-02T07:12:15.786Z,31.57
2023-04-02T07:15:24.862Z,38.02
2023-04-02T07:18:36.858Z,41.86
2023-04-02T07:21:53.032Z,40.25
2023-04-02T07:25:01.090Z,45.38
2023-04-02T07:28:19.147Z,55.66
2023-04-02T07:31:32.882Z,62.53
2023-04-02T07:34:43.012Z,73.75
2023-04-02T07:37:49.286Z,75.45
2023-04-02T07:40:56.867Z,84.58
2023-04-02T07:44:03.440Z,97.00
2023-04-02T07:47:10.961Z,129.54
2023-04-02T07:50:20.124Z,159.17
2023-04-02T07:53:33.430Z,172.00
2023-04-02T07:56:40.901Z,171.06
2023-04-02T07:59:47.848Z,163.04
2023-04-02T08:02:54.905Z,163.01
2023-04-02T08:06:04.864Z,78.90
2023-04-02T08:09:11.100Z,67.28
2023-04-02T08:12:18.795Z,58.68
2023-04-02T08:15:25.031Z,56.49
2023-04-02T08:18:32.426Z,59.00
2023-04-02T08:21:41.073Z,56.16
2023-04-02T08:24:48.010Z,66.64
2023-04-02T08:27:54.504Z,53.91
2023-04-02T08:31:01.756Z,48.16
2023-04-02T08:34:09.584Z,59.17
2023-04-02T08:37:19.229Z,70.99
2023-04-02T08:40:36.673Z,95.68
2023-04-02T08:44:21.645Z,115.21
2023-04-02T08:47:43.984Z,103.89
2023-04-02T08:51:18.296Z,107.64
2023-04-02T08:54:32.853Z,122.52
2023-04-02T08:57:54.890Z,88.09
2023-04-02T09:01:09.059Z,83.37
2023-04-02T09:04:26.234Z,60.51
2023-04-02T09:07:34.185Z,61.63
2023-04-02T09:10:54.113Z,61.17
2023-04-02T09:14:08.829Z,77.54
2023-04-02T09:17:23.871Z,76.07
2023-04-02T09:20:31.764Z,80.52
2023-04-02T09:23:38.967Z,70.79
2023-04-02T09:26:47.711Z,94.65
2023-04-02T09:30:08.640Z,82.23
2023-04-02T09:33:14.899Z,91.09
2023-04-02T09:36:38.863Z,117.37
2023-04-02T09:39:45.566Z,105.56
2023-04-02T09:43:15.154Z,103.60
2023-04-02T09:46:27.714Z,102.48
2023-04-02T09:49:38.919Z,122.23
2023-04-02T09:52:45.200Z,149.07
2023-04-02T09:55:52.084Z,176.63
2023-04-02T09:59:25.357Z,165.75
2023-04-02T10:02:33.896Z,224.66
2023-04-02T10:05:41.504Z,234.63
2023-04-02T10:08:49.895Z,237.54
2023-04-02T10:12:00.592Z,251.52
2023-04-02T10:15:30.661Z,185.13
2023-04-02T10:18:54.693Z,217.01
2023-04-02T10:22:18.868Z,221.01
2023-04-02T10:25:44.387Z,211.30
2023-04-02T10:29:19.470Z,179.64
2023-04-02T10:32:40.407Z,195.39
2023-04-02T10:36:05.471Z,197.96
2023-04-02T10:39:39.571Z,217.49
2023-04-02T10:43:05.121Z,170.89
2023-04-02T10:46:31.392Z,165.75
2023-04-02T10:49:53.920Z,171.24
2023-04-02T10:53:12.452Z,158.33
2023-04-02T10:56:20.084Z,151.41
2023-04-02T10:59:40.616Z,159.69
2023-04-02T11:03:01.561Z,170.68
2023-04-02T11:06:26.198Z,174.00
2023-04-02T11:09:44.500Z,170.46
2023-04-02T11:13:02.597Z,173.54
2023-04-02T11:16:10.833Z,200.69
2023-04-02T11:19:31.539Z,195.75
2023-04-02T11:22:41.827Z,196.75
2023-04-02T11:25:50.703Z,197.23
2023-04-02T11:29:24.405Z,197.99
2023-04-02T11:32:43.521Z,206.19
2023-04-02T11:35:50.582Z,218.10
2023-04-02T11:39:04.622Z,223.14
2023-04-02T11:42:37.089Z,193.08
2023-04-02T11:45:59.950Z,196.29
2023-04-02T11:49:44.482Z,183.49
2023-04-02T11:52:57.691Z,182.28
2023-04-02T11:56:24.964Z,176.25
2023-04-02T11:59:49.271Z,172.83
2023-04-02T12:03:32.858Z,213.15
2023-04-02T12:07:02.555Z,201.54
2023-04-02T12:10:24.334Z,185.68
2023-04-02T12:13:59.097Z,206.95
2023-04-02T12:17:24.641Z,208.91
2023-04-02T12:20:36.045Z,213.93
2023-04-02T12:23:43.884Z,244.42
2023-04-02T12:26:50.145Z,200.03
2023-04-02T12:30:17.645Z,195.63
2023-04-02T12:33:37.570Z,195.50
2023-04-02T12:37:09.622Z,190.69
2023-04-02T12:40:22.686Z,170.82
2023-04-02T12:43:32.142Z,186.73
2023-04-02T12:46:43.543Z,189.65
2023-04-02T12:49:53.357Z,179.53
2023-04-02T12:53:01.284Z,168.74
2023-04-02T12:56:27.607Z,197.35
2023-04-02T12:59:39.476Z,205.42
2023-04-02T13:03:22.807Z,194.12
2023-04-02T13:06:34.369Z,214.79
2023-04-02T13:09:51.855Z,187.27
2023-04-02T13:13:01.012Z,161.46
2023-04-02T13:16:28.179Z,179.15
2023-04-02T13:19:38.067Z,213.52
2023-04-02T13:22:45.310Z,230.45
2023-04-02T13:25:52.054Z,221.15
2023-04-02T13:29:07.035Z,194.32
2023-04-02T13:32:16.784Z,183.28
2023-04-02T13:35:27.498Z,176.48
2023-04-02T13:38:38.537Z,235.76
2023-04-02T13:42:02.923Z,212.45
2023-04-02T13:45:28.505Z,194.55
2023-04-02T13:48:35.587Z,194.53
2023-04-02T13:51:49.353Z,161.95
2023-04-02T13:55:01.739Z,167.73
2023-04-02T13:58:09.172Z,164.06
2023-04-02T14:01:19.776Z,188.20
2023-04-02T14:04:35.204Z,190.93
2023-04-02T14:08:09.266Z,192.02
2023-04-02T14:11:43.165Z,174.28
2023-04-02T14:15:16.036Z,174.13
2023-04-02T14:18:58.979Z,196.14
2023-04-02T14:22:29.179Z,192.57
2023-04-02T14:25:51.671Z,163.70
2023-04-02T14:29:10.949Z,188.21
2023-04-02T14:32:29.045Z,168.83
2023-04-02T14:35:45.256Z,172.48
2023-04-02T14:39:05.212Z,180.44
2023-04-02T14:42:23.928Z,180.75
2023-04-02T14:45:52.098Z,174.76
2023-04-02T14:49:10.179Z,187.34
2023-04-02T14:52:23.094Z,197.15
2023-04-02T14:55:40.417Z,174.83
2023-04-02T14:58:58.303Z,161.07
2023-04-02T15:02:17.203Z,171.78
2023-04-02T15:05:31.277Z,163.70
2023-04-02T15:09:02.198Z,203.83
2023-04-02T15:12:26.888Z,158.46
2023-04-02T15:15:49.829Z,181.47
2023-04-02T15:19:00.330Z,180.36
2023-04-02T15:22:31.205Z,200.51
2023-04-02T15:25:51.726Z,194.04
2023-04-02T15:29:27.805Z,186.52
2023-04-02T15:32:43.804Z,179.91
2023-04-02T15:36:01.846Z,158.58
2023-04-02T15:39:48.052Z,165.03
2023-04-02T15:43:08.043Z,125.94
2023-04-02T15:46:29.463Z,140.74
2023-04-02T15:49:46.656Z,154.51
2023-04-02T15:53:11.357Z,158.89
2023-04-02T15:56:31.688Z,167.98
2023-04-02T16:00:16.155Z,158.66
2023-04-02T16:03:47.667Z,132.75
2023-04-02T16:07:33.645Z,138.98
2023-04-02T16:10:45.412Z,140.76
2023-04-02T16:13:51.791Z,108.69
2023-04-02T16:17:17.678Z,77.85
2023-04-02T16:20:34.960Z,91.06
2023-04-02T16:23:45.953Z,86.23
2023-04-02T16:27:12.014Z,88.60
2023-04-02T16:30:44.483Z,108.39
2023-04-02T16:34:06.348Z,124.14
2023-04-02T16:37:30.334Z,159.01
2023-04-02T16:41:00.495Z,136.76
2023-04-02T16:44:35.424Z,138.51
2023-04-02T16:48:03.259Z,120.21
2023-04-02T16:51:23.655Z,162.09
2023-04-02T16:54:46.801Z,155.31
2023-04-02T16:58:17.344Z,139.35
2023-04-02T17:01:39.224Z,149.55
2023-04-02T17:05:14.646Z,142.13
2023-04-02T17:08:28.287Z,147.62
2023-04-02T17:11:45.968Z,159.14
2023-04-02T17:15:02.664Z,179.74
2023-04-02T17:18:21.602Z,191.17
2023-04-02T17:21:31.012Z,162.74
2023-04-02T17:24:47.728Z,165.84
2023-04-02T17:27:59.548Z,178.52
2023-04-02T17:31:20.948Z,204.61
2023-04-02T17:34:27.138Z,205.38
2023-04-02T17:37:47.141Z,212.28
2023-04-02T17:41:05.862Z,189.41
2023-04-02T17:44:41.559Z,193.23
2023-04-02T17:48:06.162Z,189.07
2023-04-02T17:51:30.668Z,189.27
2023-04-02T17:54:56.470Z,214.74
2023-04-02T17:58:24.648Z,201.30
2023-04-02T18:01:39.869Z,202.75
2023-04-02T18:05:10.080Z,219.84
2023-04-02T18:08:29.982Z,195.93
2023-04-02T18:11:55.376Z,218.39
2023-04-02T18:15:42.980Z,234.17
2023-04-02T18:19:13.994Z,241.68
2023-04-02T18:22:37.755Z,249.50
2023-04-02T18:25:59.461Z,220.86
2023-04-02T18:29:30.422Z,200.01
2023-04-02T18:33:10.774Z,193.05
2023-04-02T18:36:28.829Z,175.89
2023-04-02T18:40:01.438Z,165.13
2023-04-02T18:43:30.946Z,156.11
2023-04-02T18:46:52.660Z,171.50
2023-04-02T18:50:20.275Z,162.34
2023-04-02T18:53:32.425Z,177.43
2023-04-02T18:56:43.395Z,150.83
2023-04-02T19:00:00.510Z,156.16
2023-04-02T19:03:22.613Z,166.65
2023-04-02T19:06:39.305Z,157.74
2023-04-02T19:09:51.018Z,163.41
2023-04-02T19:13:00.815Z,158.55
2023-04-02T19:16:43.865Z,154.61
2023-04-02T19:20:11.153Z,153.40
2023-04-02T19:23:46.868Z,181.11
2023-04-02T19:27:05.642Z,168.34
2023-04-02T19:31:01.510Z,154.26
2023-04-02T19:34:28.003Z,154.90
2023-04-02T19:37:45.128Z,152.94
2023-04-02T19:41:04.058Z,162.83
2023-04-02T19:44:14.679Z,155.22
2023-04-02T19:47:25.878Z,132.19
2023-04-02T19:50:32.686Z,129.23
2023-04-02T19:53:39.609Z,124.83
2023-04-02T19:56:45.867Z,126.68
2023-04-02T19:59:52.979Z,142.41
2023-04-02T20:03:01.782Z,149.14
2023-04-02T20:06:08.961Z,152.48
2023-04-02T20:09:15.037Z,134.58
2023-04-02T20:12:22.014Z,143.26
2023-04-02T20:15:28.179Z,136.91
2023-04-02T20:18:38.390Z,142.04
2023-04-02T20:21:44.431Z,123.50
2023-04-02T20:24:51.373Z,110.12
2023-04-02T20:27:57.445Z,119.78
2023-04-02T20:31:14.103Z,121.86
2023-04-02T20:34:22.966Z,112.52
2023-04-02T20:37:30.448Z,122.03
2023-04-02T20:40:37.176Z,124.78
2023-04-02T20:43:44.215Z,114.55
2023-04-02T20:46:50.253Z,111.09
2023-04-02T20:49:59.712Z,106.48
2023-04-02T20:53:08.600Z,103.32
2023-04-02T20:56:19.764Z,97.97
2023-04-02T20:59:25.824Z,103.38
2023-04-02T21:02:33.545Z,103.92
2023-04-02T21:05:46.763Z,105.20
2023-04-02T21:08:54.471Z,106.59
2023-04-02T21:12:00.573Z,101.74
2023-04-02T21:15:08.371Z,106.99
2023-04-02T21:18:16.538Z,101.89
2023-04-02T21:21:31.739Z,112.68
2023-04-02T21:24:37.740Z,104.66
2023-04-02T21:27:44.551Z,96.42
2023-04-02T21:30:50.616Z,92.99
2023-04-02T21:34:09.738Z,94.00
2023-04-02T21:37:21.036Z,98.60
2023-04-02T21:40:27.856Z,93.01
2023-04-02T21:43:33.810Z,91.69
2023-04-02T21:46:43.476Z,95.34
2023-04-02T21:49:49.690Z,90.75
2023-04-02T21:52:59.175Z,91.56
2023-04-02T21:56:18.746Z,92.94
2023-04-02T21:59:29.212Z,84.36
2023-04-02T22:02:38.697Z,80.10
2023-04-02T22:06:09.745Z,84.33
2023-04-02T22:09:22.062Z,80.28
2023-04-02T22:12:28.967Z,80.71
2023-04-02T22:15:35.761Z,71.56
2023-04-02T22:18:46.558Z,71.20
2023-04-02T22:21:53.417Z,69.90
2023-04-02T22:25:03.540Z,70.51
2023-04-02T22:28:09.729Z,72.01
2023-04-02T22:31:25.229Z,69.68
2023-04-02T22:34:31.639Z,66.82
2023-04-02T22:37:38.405Z,61.74
2023-04-02T22:40:47.028Z,62.38
2023-04-02T22:43:53.894Z,59.84
2023-04-02T22:46:59.865Z,60.95
2023-04-02T22:50:09.208Z,62.95
2023-04-02T22:53:17.322Z,67.11
2023-04-02T22:56:32.406Z,66.72
2023-04-02T22:59:38.562Z,71.50
2023-04-02T23:02:46.931Z,74.79
2023-04-02T23:06:08.386Z,81.13
2023-04-02T23:09:18.257Z,82.98
2023-04-02T23:12:26.985Z,89.78
2023-04-02T23:15:33.824Z,87.87
2023-04-02T23:18:41.909Z,88.74
2023-04-02T23:21:48.975Z,89.97
2023-04-02T23:24:55.022Z,93.01
2023-04-02T23:28:04.829Z,91.82
2023-04-02T23:31:16.199Z,88.67
2023-04-02T23:34:22.986Z,89.85
2023-04-02T23:37:31.652Z,89.18
2023-04-02T23:40:38.457Z,87.00
2023-04-02T23:43:47.539Z,89.71
2023-04-02T23:46:54.996Z,86.74
2023-04-02T23:50:01.174Z,89.33
2023-04-02T23:53:08.005Z,85.52
2023-04-02T23:56:14.669Z,89.28
2023-04-02T23:59:24.041Z,87.67
